Time;durP1;ratioP1;P1;durP2;ratioP2;P2;SDS_P1;SDS_P2;PMS_P1;PMS_P2;Temp;Humidity;BMP_temperature;BMP_pressure;BME280_temperature;BME280_humidity;BME280_pressure;Samples;Min_cycle;Max_cycle;Signal;HPM_P1;HPM_P2
2023/07/02 00:01:33;;;;;;;2.85;2.55;;;18.80;99.90;;;;;;5048964;28;20385;-79
2023/07/02 00:03:58;;;;;;;2.60;2.40;;;18.80;99.90;;;;;;5067692;28;20413;-78
2023/07/02 00:06:25;;;;;;;2.57;2.37;;;18.80;99.90;;;;;;5066101;28;20417;-79
2023/07/02 00:08:50;;;;;;;3.03;2.72;;;18.80;99.90;;;;;;5061892;28;20439;-79
2023/07/02 00:11:16;;;;;;;2.97;2.60;;;18.80;99.90;;;;;;5068219;28;20401;-80
2023/07/02 00:13:41;;;;;;;2.77;2.30;;;18.80;99.90;;;;;;5054729;28;20463;-79
2023/07/02 00:16:07;;;;;;;2.90;2.60;;;18.80;99.90;;;;;;5065017;28;20392;-79
2023/07/02 00:18:36;;;;;;;2.60;2.40;;;18.70;99.90;;;;;;5075286;28;20854;-79
2023/07/02 00:21:04;;;;;;;2.83;2.45;;;18.70;99.90;;;;;;5075410;28;20455;-80
2023/07/02 00:23:30;;;;;;;3.15;2.88;;;18.70;99.90;;;;;;5075286;28;20414;-80
2023/07/02 00:25:59;;;;;;;5.95;2.70;;;18.70;99.90;;;;;;5064432;28;20451;-80
2023/07/02 00:28:24;;;;;;;3.20;2.53;;;18.60;99.90;;;;;;5036495;28;20405;-80
2023/07/02 00:30:50;;;;;;;2.70;2.50;;;18.70;99.90;;;;;;5063641;28;20529;-80
2023/07/02 00:33:15;;;;;;;3.33;2.60;;;18.70;99.90;;;;;;5074119;28;20769;-80
2023/07/02 00:35:41;;;;;;;3.00;2.80;;;18.70;99.90;;;;;;5074009;28;20380;-80
2023/07/02 00:38:06;;;;;;;2.70;2.50;;;18.70;99.90;;;;;;5056556;28;20425;-80
2023/07/02 00:40:32;;;;;;;3.78;2.90;;;18.70;99.90;;;;;;5071202;28;20442;-80
2023/07/02 00:42:58;;;;;;;3.00;2.60;;;18.70;99.90;;;;;;5060377;28;20428;-80
2023/07/02 00:45:26;;;;;;;3.42;2.83;;;18.70;99.90;;;;;;5057198;28;20391;-80
2023/07/02 00:47:54;;;;;;;3.40;3.10;;;18.80;99.90;;;;;;5074372;28;20467;-80
2023/07/02 00:50:23;;;;;;;3.38;3.08;;;18.70;99.90;;;;;;5057260;28;20384;-80
2023/07/02 00:52:48;;;;;;;2.60;2.40;;;18.70;99.90;;;;;;5054350;28;20384;-80
2023/07/02 00:55:14;;;;;;;2.80;2.50;;;18.80;99.90;;;;;;5054743;28;20451;-80
2023/07/02 00:57:40;;;;;;;2.80;2.60;;;18.80;99.90;;;;;;5053881;28;20378;-79
2023/07/02 01:00:07;;;;;;;2.90;2.70;;;18.80;99.90;;;;;;5055172;28;20389;-80
2023/07/02 01:02:32;;;;;;;3.20;2.90;;;18.70;99.90;;;;;;5037218;28;20472;-81
2023/07/02 01:04:59;;;;;;;2.85;2.65;;;18.70;99.90;;;;;;5073714;28;20949;-80
2023/07/02 01:07:25;;;;;;;2.72;2.53;;;18.70;99.90;;;;;;5074048;28;20387;-80
2023/07/02 01:09:51;;;;;;;3.85;2.50;;;18.70;99.90;;;;;;5074078;28;20875;-79
2023/07/02 01:12:17;;;;;;;2.90;2.70;;;18.70;99.90;;;;;;5060618;28;20393;-79
2023/07/02 01:14:52;;;;;;;3.17;2.97;;;18.70;99.90;;;;;;5052133;28;20937;-80
2023/07/02 01:17:19;;;;;;;3.50;2.63;;;18.80;99.90;;;;;;5073199;28;20387;-81
2023/07/02 01:19:58;;;;;;;3.60;3.00;;;18.80;99.90;;;;;;5072641;28;20404;-80
2023/07/02 01:22:26;;;;;;;3.17;2.95;;;18.70;99.90;;;;;;5054387;28;20871;-80
2023/07/02 01:24:53;;;;;;;3.13;2.65;;;18.70;99.90;;;;;;5073263;28;20398;-80
2023/07/02 01:27:19;;;;;;;3.10;2.80;;;18.70;99.90;;;;;;5054498;28;20384;-80
2023/07/02 01:29:46;;;;;;;3.78;2.90;;;18.70;99.90;;;;;;5074012;28;20437;-80
2023/07/02 01:32:15;;;;;;;3.20;2.90;;;18.70;99.90;;;;;;5070860;28;20392;-80
2023/07/02 01:34:43;;;;;;;3.90;2.90;;;18.60;99.90;;;;;;5035596;28;20405;-80
2023/07/02 01:37:09;;;;;;;2.60;2.40;;;18.60;99.90;;;;;;5034692;28;20413;-81
2023/07/02 01:39:34;;;;;;;2.90;2.70;;;18.60;99.90;;;;;;5035432;28;20392;-79
2023/07/02 01:42:16;;;;;;;3.53;3.23;;;18.60;99.90;;;;;;5073408;28;20433;-80
2023/07/02 01:44:43;;;;;;;3.25;2.95;;;18.60;99.90;;;;;;5073537;28;20388;-81
2023/07/02 01:47:08;;;;;;;3.53;3.22;;;18.60;99.90;;;;;;5053352;28;20406;-80
2023/07/02 01:49:34;;;;;;;4.00;3.20;;;18.60;99.90;;;;;;5073176;28;20949;-80
2023/07/02 01:52:00;;;;;;;3.47;3.17;;;18.60;99.90;;;;;;5054281;28;20504;-80
2023/07/02 01:54:27;;;;;;;3.17;2.97;;;18.60;99.90;;;;;;5047270;28;20824;-80
2023/07/02 01:56:53;;;;;;;3.88;3.10;;;18.60;99.90;;;;;;5054118;28;20378;-80
2023/07/02 01:59:19;;;;;;;4.13;3.70;;;18.60;99.90;;;;;;5055135;28;20381;-79
2023/07/02 02:01:45;;;;;;;3.60;3.30;;;18.60;99.90;;;;;;5052470;28;20826;-81
2023/07/02 02:04:11;;;;;;;3.63;3.33;;;18.60;99.90;;;;;;5073415;28;20395;-80
2023/07/02 02:06:37;;;;;;;3.42;3.13;;;18.60;99.90;;;;;;5057532;28;20384;-80
2023/07/02 02:09:04;;;;;;;3.45;3.10;;;18.60;99.90;;;;;;5073814;28;20387;-79
2023/07/02 02:11:30;;;;;;;3.53;3.22;;;18.60;99.90;;;;;;5053555;28;20410;-79
2023/07/02 02:13:56;;;;;;;3.90;3.42;;;18.60;99.90;;;;;;5044555;28;20410;-79
2023/07/02 02:16:21;;;;;;;3.38;3.03;;;18.60;99.90;;;;;;5040339;28;20385;-80
2023/07/02 02:18:47;;;;;;;2.90;2.70;;;18.50;99.90;;;;;;5035052;28;20451;-81
2023/07/02 02:21:13;;;;;;;4.90;3.10;;;18.60;99.90;;;;;;5051959;28;20389;-80
2023/07/02 02:23:39;;;;;;;3.67;3.38;;;18.60;99.90;;;;;;5052540;28;20385;-81
2023/07/02 02:26:04;;;;;;;3.00;2.70;;;18.50;99.90;;;;;;5069776;28;20399;-80
2023/07/02 02:28:30;;;;;;;4.73;3.30;;;18.50;99.90;;;;;;5072227;28;20471;-81
2023/07/02 02:30:55;;;;;;;3.10;2.90;;;18.50;99.90;;;;;;5041365;28;20390;-80
2023/07/02 02:33:22;;;;;;;3.60;3.30;;;18.50;99.90;;;;;;5056715;28;20435;-81
2023/07/02 02:35:48;;;;;;;3.58;3.28;;;18.50;99.90;;;;;;5054735;28;20385;-80
2023/07/02 02:38:14;;;;;;;6.15;3.67;;;18.40;99.90;;;;;;5038157;28;20385;-81
2023/07/02 02:40:40;;;;;;;4.47;2.80;;;18.40;99.90;;;;;;5049029;28;20437;-80
2023/07/02 02:43:05;;;;;;;3.77;3.47;;;18.40;99.90;;;;;;5056140;28;20431;-80
2023/07/02 02:45:31;;;;;;;6.40;3.77;;;18.40;99.90;;;;;;5055325;28;20384;-80
2023/07/02 02:47:56;;;;;;;4.90;3.85;;;18.40;99.90;;;;;;5056187;28;20409;-80
2023/07/02 02:50:22;;;;;;;3.90;3.20;;;18.40;99.90;;;;;;5056677;28;20397;-80
2023/07/02 02:52:47;;;;;;;4.88;3.60;;;18.30;99.90;;;;;;5062811;28;20407;-80
2023/07/02 02:55:13;;;;;;;5.20;3.70;;;18.30;99.90;;;;;;5055596;28;20923;-80
2023/07/02 02:57:39;;;;;;;3.60;3.30;;;18.30;99.90;;;;;;5054805;28;20409;-80
2023/07/02 03:00:06;;;;;;;3.88;3.33;;;18.30;99.90;;;;;;5037822;28;20387;-81
2023/07/02 03:02:32;;;;;;;5.32;3.38;;;18.30;99.90;;;;;;5046143;28;20395;-80
2023/07/02 03:05:02;;;;;;;4.25;3.30;;;18.30;99.90;;;;;;5079330;28;20391;-81
2023/07/02 03:07:31;;;;;;;4.18;3.78;;;18.40;99.90;;;;;;5060325;28;20405;-80
2023/07/02 03:09:57;;;;;;;5.65;3.70;;;18.40;99.90;;;;;;5056755;28;20388;-81
2023/07/02 03:12:22;;;;;;;5.50;4.00;;;18.30;99.90;;;;;;5034588;28;20391;-80
2023/07/02 03:14:52;;;;;;;4.10;3.70;;;18.30;99.90;;;;;;5034730;28;20460;-81
2023/07/02 03:17:18;;;;;;;4.80;3.97;;;18.30;99.90;;;;;;5036877;28;20408;-81
2023/07/02 03:19:44;;;;;;;4.72;3.55;;;18.30;99.90;;;;;;5055604;28;20457;-81
2023/07/02 03:22:09;;;;;;;5.10;4.20;;;18.30;99.90;;;;;;5037466;28;20377;-80
2023/07/02 03:24:35;;;;;;;3.90;3.60;;;18.30;99.90;;;;;;5060234;28;20410;-81
2023/07/02 03:27:00;;;;;;;6.85;4.05;;;18.30;99.90;;;;;;5074349;28;20441;-81
2023/07/02 03:29:26;;;;;;;5.40;3.90;;;18.30;99.90;;;;;;5057550;28;20430;-81
2023/07/02 03:31:51;;;;;;;6.22;4.30;;;18.30;99.90;;;;;;5057223;28;20380;-81
2023/07/02 03:34:17;;;;;;;6.10;3.90;;;18.30;99.90;;;;;;5074131;28;20410;-81
2023/07/02 03:36:44;;;;;;;5.10;4.60;;;18.30;99.90;;;;;;5037088;28;20820;-81
2023/07/02 03:39:09;;;;;;;8.07;4.68;;;18.20;99.90;;;;;;5055645;28;20763;-82
2023/07/02 03:41:35;;;;;;;5.93;4.45;;;18.30;99.90;;;;;;5055599;28;20407;-81
2023/07/02 03:44:01;;;;;;;5.43;4.03;;;18.20;99.90;;;;;;5068215;28;20389;-80
2023/07/02 03:46:26;;;;;;;7.43;4.35;;;18.30;99.90;;;;;;5055035;28;20415;-81
2023/07/02 03:48:52;;;;;;;6.50;4.70;;;18.30;99.90;;;;;;5055458;28;20397;-81
2023/07/02 03:51:17;;;;;;;5.93;4.50;;;18.20;99.90;;;;;;5056278;28;20456;-81
2023/07/02 03:53:43;;;;;;;5.30;4.45;;;18.30;99.90;;;;;;5056726;28;20407;-81
2023/07/02 03:56:09;;;;;;;6.55;4.55;;;18.30;99.90;;;;;;5074363;28;20392;-80
2023/07/02 03:58:35;;;;;;;6.17;4.77;;;18.30;99.90;;;;;;5057849;28;20376;-81
2023/07/02 04:01:01;;;;;;;7.43;4.40;;;18.40;99.90;;;;;;5055647;28;20488;-81
2023/07/02 04:03:26;;;;;;;5.60;4.50;;;18.30;99.90;;;;;;5037664;28;20425;-81
2023/07/02 04:05:52;;;;;;;7.87;5.63;;;18.30;99.90;;;;;;5036406;28;20459;-81
2023/07/02 04:08:20;;;;;;;8.27;6.65;;;18.40;99.90;;;;;;5054670;28;20390;-80
2023/07/02 04:10:46;;;;;;;9.82;7.18;;;18.30;99.90;;;;;;5071479;28;20490;-81
2023/07/02 04:13:11;;;;;;;12.48;8.02;;;18.30;99.90;;;;;;5056148;28;20469;-81
2023/07/02 04:15:37;;;;;;;11.77;7.20;;;18.30;99.90;;;;;;5074254;28;20376;-80
2023/07/02 04:18:02;;;;;;;12.53;8.00;;;18.30;99.90;;;;;;5057275;28;20482;-80
2023/07/02 04:20:28;;;;;;;9.95;8.63;;;18.30;99.90;;;;;;5057121;28;20862;-81
2023/07/02 04:22:54;;;;;;;11.70;9.00;;;18.20;99.90;;;;;;5074822;28;21001;-81
2023/07/02 04:25:20;;;;;;;13.98;9.65;;;18.20;99.90;;;;;;5060711;28;20399;-80
2023/07/02 04:27:45;;;;;;;12.35;8.85;;;18.20;99.90;;;;;;5074778;28;20453;-83
2023/07/02 04:30:11;;;;;;;14.85;9.65;;;18.20;99.90;;;;;;5079055;28;20762;-82
2023/07/02 04:32:40;;;;;;;13.18;10.00;;;18.20;99.90;;;;;;5057151;28;20405;-82
2023/07/02 04:35:07;;;;;;;13.90;10.90;;;18.10;99.90;;;;;;5071759;28;20493;-83
2023/07/02 04:37:33;;;;;;;13.20;10.18;;;18.20;99.90;;;;;;5058852;28;20387;-82
2023/07/02 04:39:59;;;;;;;16.85;12.00;;;18.10;99.90;;;;;;5073925;28;20754;-82
2023/07/02 04:42:27;;;;;;;13.38;11.10;;;18.20;99.90;;;;;;5074643;28;20387;-81
2023/07/02 04:44:54;;;;;;;15.40;12.63;;;18.20;99.90;;;;;;5075116;28;20388;-81
2023/07/02 04:47:20;;;;;;;17.13;12.53;;;18.20;99.90;;;;;;5080764;28;20505;-81
2023/07/02 04:49:45;;;;;;;15.67;12.07;;;18.80;99.90;;;;;;5078763;28;20765;-82
2023/07/02 04:52:11;;;;;;;20.37;11.90;;;18.10;99.90;;;;;;5081990;28;20474;-81
2023/07/02 04:54:36;;;;;;;22.08;13.80;;;18.10;99.90;;;;;;5061026;28;20448;-82
2023/07/02 04:57:02;;;;;;;20.00;13.60;;;18.10;99.90;;;;;;5077749;28;20470;-82
2023/07/02 04:59:28;;;;;;;20.70;13.77;;;18.10;99.90;;;;;;5057833;28;20879;-82
2023/07/02 05:01:53;;;;;;;16.35;13.23;;;18.10;99.90;;;;;;5078586;28;20420;-82
2023/07/02 05:04:19;;;;;;;18.53;13.03;;;18.10;99.90;;;;;;5061736;28;20909;-83
2023/07/02 05:06:44;;;;;;;19.03;14.20;;;18.10;99.90;;;;;;5078648;28;20386;-82
2023/07/02 05:09:10;;;;;;;19.05;13.98;;;18.10;99.90;;;;;;5076763;28;20389;-81
2023/07/02 05:11:35;;;;;;;20.50;14.73;;;18.00;99.90;;;;;;5051152;28;20398;-81
2023/07/02 05:14:01;;;;;;;19.25;14.70;;;18.10;99.90;;;;;;5076949;28;20416;-82
2023/07/02 05:16:27;;;;;;;19.83;14.55;;;18.10;99.90;;;;;;5078342;28;20445;-81
2023/07/02 05:18:53;;;;;;;17.30;14.40;;;18.10;99.90;;;;;;5063425;28;20399;-81
2023/07/02 05:21:18;;;;;;;20.57;14.83;;;18.20;99.90;;;;;;5071799;28;20451;-81
2023/07/02 05:23:44;;;;;;;19.33;14.37;;;18.20;99.90;;;;;;5056409;28;20942;-81
2023/07/02 05:26:10;;;;;;;19.53;14.53;;;18.20;99.90;;;;;;5056666;28;20385;-81
2023/07/02 05:28:36;;;;;;;18.77;14.13;;;18.20;99.90;;;;;;5077174;28;20391;-82
2023/07/02 05:31:01;;;;;;;20.30;14.57;;;18.10;99.90;;;;;;5076416;28;20409;-82
2023/07/02 05:33:27;;;;;;;21.17;15.13;;;18.20;99.90;;;;;;5085698;28;20450;-82
2023/07/02 05:35:52;;;;;;;18.90;14.63;;;18.20;99.90;;;;;;5061192;28;20383;-82
2023/07/02 05:38:19;;;;;;;20.58;14.27;;;18.20;99.90;;;;;;5063159;28;20929;-83
2023/07/02 05:40:45;;;;;;;17.85;14.13;;;18.20;99.90;;;;;;5060270;28;20378;-80
2023/07/02 05:43:11;;;;;;;19.88;13.77;;;18.30;99.90;;;;;;5065372;28;20413;-82
2023/07/02 05:45:36;;;;;;;20.95;14.68;;;18.20;99.90;;;;;;5070447;28;20419;-82
2023/07/02 05:48:02;;;;;;;20.93;15.77;;;18.30;99.90;;;;;;5077117;28;20380;-80
2023/07/02 05:50:28;;;;;;;18.55;14.05;;;18.30;99.90;;;;;;5062682;28;20410;-81
2023/07/02 05:52:53;;;;;;;23.25;15.18;;;18.30;99.90;;;;;;5079558;28;20925;-82
2023/07/02 05:55:19;;;;;;;19.17;14.83;;;18.50;99.90;;;;;;5049911;28;20402;-83
2023/07/02 05:57:45;;;;;;;19.95;15.02;;;18.30;99.90;;;;;;5054783;28;20385;-82
2023/07/02 06:00:11;;;;;;;21.27;14.90;;;18.20;99.90;;;;;;5072716;28;20437;-82
2023/07/02 06:02:37;;;;;;;20.70;15.27;;;18.30;99.90;;;;;;5075405;28;20467;-80
2023/07/02 06:05:02;;;;;;;18.93;14.30;;;18.30;99.90;;;;;;5064429;28;20432;-81
2023/07/02 06:07:28;;;;;;;19.90;14.98;;;18.30;99.90;;;;;;5052018;28;20391;-82
2023/07/02 06:09:54;;;;;;;23.93;15.83;;;18.40;99.90;;;;;;5061741;28;20437;-82
2023/07/02 06:12:21;;;;;;;20.50;15.67;;;18.30;99.90;;;;;;5061165;28;20409;-81
2023/07/02 06:14:46;;;;;;;19.85;15.77;;;18.40;99.90;;;;;;5052945;28;20412;-80
2023/07/02 06:17:12;;;;;;;23.40;15.02;;;18.40;99.90;;;;;;5051062;28;20729;-80
2023/07/02 06:19:38;;;;;;;22.93;16.40;;;18.30;99.90;;;;;;5056924;28;20449;-80
2023/07/02 06:22:04;;;;;;;24.45;15.13;;;18.30;99.90;;;;;;5072686;28;20438;-80
2023/07/02 06:24:29;;;;;;;23.33;16.03;;;18.30;99.90;;;;;;5059543;28;20389;-80
2023/07/02 06:26:55;;;;;;;21.10;16.30;;;18.40;99.90;;;;;;5051243;28;20396;-80
2023/07/02 06:29:22;;;;;;;22.80;15.88;;;18.40;99.90;;;;;;5051486;28;20431;-81
2023/07/02 06:31:48;;;;;;;21.50;15.98;;;18.50;99.90;;;;;;5052363;28;20393;-81
2023/07/02 06:34:14;;;;;;;23.23;15.90;;;18.50;99.90;;;;;;5062272;28;20452;-81
2023/07/02 06:36:40;;;;;;;26.27;16.83;;;18.50;99.90;;;;;;5069872;28;20387;-79
2023/07/02 06:39:05;;;;;;;22.60;16.10;;;18.50;99.90;;;;;;5066490;28;20417;-81
2023/07/02 06:41:31;;;;;;;23.40;16.37;;;18.70;99.90;;;;;;5050958;28;20389;-80
2023/07/02 06:43:56;;;;;;;26.80;16.23;;;18.70;99.90;;;;;;5053592;28;20385;-82
2023/07/02 06:46:22;;;;;;;20.30;15.40;;;18.70;99.90;;;;;;5053269;28;20389;-83
2023/07/02 06:48:47;;;;;;;22.57;15.70;;;18.70;99.90;;;;;;5058771;28;20420;-82
2023/07/02 06:51:14;;;;;;;21.30;15.83;;;18.70;99.90;;;;;;5071603;28;20402;-82
2023/07/02 06:53:41;;;;;;;25.75;16.98;;;18.60;99.90;;;;;;5066471;28;20492;-81
2023/07/02 06:56:09;;;;;;;22.60;16.65;;;18.60;99.90;;;;;;5052234;28;20764;-80
2023/07/02 06:58:34;;;;;;;22.70;15.03;;;18.70;99.90;;;;;;5052237;28;20424;-81
2023/07/02 07:01:00;;;;;;;24.03;16.70;;;18.70;99.90;;;;;;5053220;28;20377;-81
2023/07/02 07:03:26;;;;;;;24.50;16.38;;;17.50;99.90;;;;;;5059835;28;20469;-80
2023/07/02 07:05:52;;;;;;;20.98;16.48;;;18.60;99.90;;;;;;5054108;28;20448;-82
2023/07/02 07:08:17;;;;;;;25.30;16.95;;;18.60;99.90;;;;;;5055634;28;20413;-82
2023/07/02 07:10:45;;;;;;;21.57;16.60;;;18.70;99.90;;;;;;5051654;28;20778;-81
2023/07/02 07:13:13;;;;;;;24.25;17.60;;;18.70;99.90;;;;;;5032328;28;20391;-81
2023/07/02 07:15:38;;;;;;;23.17;16.30;;;18.90;99.90;;;;;;5032529;28;20761;-82
2023/07/02 07:18:04;;;;;;;26.05;16.73;;;18.90;99.90;;;;;;5064068;28;20406;-82
2023/07/02 07:20:30;;;;;;;20.57;16.40;;;18.90;99.90;;;;;;5075312;28;20832;-82
2023/07/02 07:22:57;;;;;;;23.48;17.25;;;19.00;99.90;;;;;;5076498;28;20433;-81
2023/07/02 07:25:22;;;;;;;25.73;16.50;;;19.10;99.90;;;;;;5042001;28;20401;-81
2023/07/02 07:27:48;;;;;;;22.95;17.08;;;19.00;99.90;;;;;;5054845;28;20385;-81
2023/07/02 07:30:14;;;;;;;22.85;16.77;;;19.20;99.90;;;;;;5055629;28;20393;-82
2023/07/02 07:32:41;;;;;;;26.15;17.20;;;19.30;99.90;;;;;;5054456;28;20397;-81
2023/07/02 07:35:07;;;;;;;23.08;16.17;;;19.30;99.90;;;;;;5066336;28;20773;-81
2023/07/02 07:37:32;;;;;;;24.90;16.98;;;19.30;99.90;;;;;;5045489;28;20862;-82
2023/07/02 07:39:58;;;;;;;24.73;16.92;;;19.30;99.90;;;;;;5057685;28;20878;-81
2023/07/02 07:42:23;;;;;;;23.00;18.50;;;19.20;99.90;;;;;;5055580;28;20436;-81
2023/07/02 07:44:49;;;;;;;24.03;17.30;;;19.30;99.90;;;;;;5056106;28;20468;-81
2023/07/02 07:47:15;;;;;;;22.80;18.35;;;19.20;99.90;;;;;;5057179;28;20390;-81
2023/07/02 07:49:40;;;;;;;25.30;19.10;;;18.90;99.90;;;;;;5057246;28;20392;-81
2023/07/02 07:52:06;;;;;;;25.37;18.43;;;19.30;99.90;;;;;;5056658;28;20381;-80
2023/07/02 07:54:35;;;;;;;26.30;19.40;;;19.50;99.90;;;;;;5055357;28;20859;-81
2023/07/02 07:57:00;;;;;;;24.23;17.50;;;19.50;99.90;;;;;;5054478;28;20484;-81
2023/07/02 07:59:26;;;;;;;26.57;18.23;;;19.50;99.90;;;;;;5048903;28;20997;-81
2023/07/02 08:01:51;;;;;;;25.57;19.50;;;19.60;99.90;;;;;;5053117;28;20421;-82
2023/07/02 08:04:17;;;;;;;25.83;18.63;;;19.40;99.90;;;;;;5059126;28;20481;-81
2023/07/02 08:06:42;;;;;;;25.63;19.23;;;19.50;99.90;;;;;;5054982;28;20841;-82
2023/07/02 08:09:09;;;;;;;26.35;18.75;;;19.50;99.90;;;;;;5055257;28;20389;-81
2023/07/02 08:11:34;;;;;;;28.00;19.75;;;19.40;99.90;;;;;;5054097;28;20372;-81
2023/07/02 08:14:00;;;;;;;25.85;19.00;;;19.60;99.90;;;;;;5053566;28;20407;-82
2023/07/02 08:16:25;;;;;;;23.97;18.40;;;19.60;99.90;;;;;;5053859;28;20385;-81
2023/07/02 08:18:51;;;;;;;25.93;19.77;;;19.60;99.90;;;;;;5056290;28;20443;-81
2023/07/02 08:21:16;;;;;;;25.90;18.03;;;19.60;99.90;;;;;;5056539;28;20381;-81
2023/07/02 08:23:43;;;;;;;25.70;19.00;;;19.70;99.90;;;;;;5075952;28;20400;-81
2023/07/02 08:26:10;;;;;;;26.13;18.50;;;19.70;99.90;;;;;;5076997;28;20400;-82
2023/07/02 08:28:36;;;;;;;24.55;17.30;;;19.70;99.90;;;;;;5058431;28;20392;-81
2023/07/02 08:31:01;;;;;;;25.17;18.80;;;19.60;99.90;;;;;;5077315;28;20406;-81
2023/07/02 08:33:27;;;;;;;25.80;19.60;;;19.70;99.90;;;;;;5045259;28;20405;-80
2023/07/02 08:35:52;;;;;;;24.30;18.30;;;19.70;99.90;;;;;;5054968;28;20382;-81
2023/07/02 08:38:18;;;;;;;25.70;18.33;;;21.00;99.90;;;;;;5056415;28;20382;-81
2023/07/02 08:40:44;;;;;;;26.52;18.38;;;20.00;99.90;;;;;;5057704;28;20388;-80
2023/07/02 08:43:09;;;;;;;27.33;19.10;;;20.30;99.90;;;;;;5066189;28;20417;-81
2023/07/02 08:45:36;;;;;;;28.63;19.13;;;20.20;99.90;;;;;;5050887;28;20450;-82
2023/07/02 08:48:01;;;;;;;24.88;18.25;;;20.10;99.90;;;;;;5059825;28;20464;-80
2023/07/02 08:50:28;;;;;;;26.93;18.80;;;20.00;99.90;;;;;;5037708;28;20424;-81
2023/07/02 08:52:54;;;;;;;24.80;19.10;;;20.30;99.90;;;;;;5053646;28;20389;-79
2023/07/02 08:55:20;;;;;;;25.52;18.60;;;20.10;99.90;;;;;;5058308;28;20408;-80
2023/07/02 08:57:54;;;;;;;25.92;19.65;;;20.00;99.90;;;;;;5056832;28;20397;-80
2023/07/02 09:00:21;;;;;;;25.45;19.20;;;20.10;99.90;;;;;;5054222;28;20755;-81
2023/07/02 09:02:46;;;;;;;29.23;18.92;;;20.00;99.90;;;;;;5054853;28;20393;-81
2023/07/02 09:05:13;;;;;;;26.40;18.67;;;19.90;99.90;;;;;;5056386;28;20413;-81
2023/07/02 09:07:46;;;;;;;25.50;18.90;;;19.90;99.90;;;;;;5054503;28;20428;-81
2023/07/02 09:10:12;;;;;;;27.27;18.55;;;20.00;99.90;;;;;;5054484;28;20389;-80
2023/07/02 09:12:39;;;;;;;26.20;18.90;;;20.00;99.90;;;;;;5053820;28;20406;-80
2023/07/02 09:15:06;;;;;;;27.65;18.88;;;20.00;99.90;;;;;;5060888;28;20408;-80
2023/07/02 09:17:38;;;;;;;25.45;18.50;;;19.90;99.90;;;;;;5055071;28;20449;-79
2023/07/02 09:20:08;;;;;;;26.80;19.25;;;20.20;99.90;;;;;;5074664;28;20797;-80
2023/07/02 09:22:34;;;;;;;23.80;18.35;;;20.10;99.90;;;;;;5056077;28;21161;-80
2023/07/02 09:25:01;;;;;;;22.70;18.80;;;20.10;99.90;;;;;;5054448;28;20428;-78
2023/07/02 09:27:43;;;;;;;24.92;19.17;;;20.20;99.90;;;;;;5052166;28;20415;-81
2023/07/02 09:30:13;;;;;;;25.67;18.58;;;19.90;99.90;;;;;;5065897;28;20426;-78
2023/07/02 09:32:38;;;;;;;23.88;18.42;;;20.40;99.90;;;;;;5055115;28;20396;-80
2023/07/02 09:35:04;;;;;;;25.90;19.00;;;20.50;99.90;;;;;;5055843;28;20951;-80
2023/07/02 09:37:31;;;;;;;24.50;18.35;;;20.70;99.90;;;;;;5054605;28;20387;-80
2023/07/02 09:39:57;;;;;;;24.20;17.58;;;20.50;99.90;;;;;;5065243;28;20485;-79
2023/07/02 09:42:24;;;;;;;24.13;17.83;;;20.80;99.90;;;;;;5056688;28;20384;-80
2023/07/02 09:44:52;;;;;;;26.45;17.50;;;20.80;99.90;;;;;;5074061;28;20387;-80
2023/07/02 09:47:18;;;;;;;27.23;19.73;;;21.00;99.90;;;;;;5072792;28;20405;-81
2023/07/02 09:49:54;;;;;;;27.15;19.23;;;20.90;99.90;;;;;;5041587;28;20416;-79
2023/07/02 09:52:20;;;;;;;26.33;17.93;;;20.70;99.90;;;;;;5054114;28;20383;-81
2023/07/02 09:54:46;;;;;;;22.35;17.20;;;20.90;99.90;;;;;;5059775;28;20393;-79
2023/07/02 09:57:12;;;;;;;21.88;17.42;;;21.00;99.90;;;;;;5043081;28;20445;-79
2023/07/02 09:59:38;;;;;;;24.93;18.90;;;21.00;99.90;;;;;;5054584;28;20424;-80
2023/07/02 10:02:05;;;;;;;24.45;19.02;;;21.00;99.90;;;;;;5054336;28;20397;-81
2023/07/02 10:04:43;;;;;;;23.35;17.30;;;20.90;99.90;;;;;;5054262;28;20527;-80
2023/07/02 10:07:09;;;;;;;25.48;17.85;;;20.80;99.90;;;;;;5073711;28;20423;-81
2023/07/02 10:09:43;;;;;;;23.88;17.40;;;21.10;99.90;;;;;;5048093;28;20405;-80
2023/07/02 10:12:19;;;;;;;20.40;16.10;;;21.00;99.90;;;;;;5055063;28;20818;-80
2023/07/02 10:14:46;;;;;;;21.95;17.42;;;20.80;99.90;;;;;;5051947;28;20930;-80
2023/07/02 10:17:32;;;;;;;22.10;16.77;;;21.10;99.90;;;;;;5052780;28;20381;-79
2023/07/02 10:20:00;;;;;;;23.00;17.80;;;21.10;99.90;;;;;;5054299;28;20381;-79
2023/07/02 10:22:26;;;;;;;22.70;17.40;;;21.30;99.90;;;;;;5037165;28;20390;-81
2023/07/02 10:25:01;;;;;;;22.47;16.67;;;21.60;99.90;;;;;;5058944;28;20395;-80
2023/07/02 10:27:37;;;;;;;20.33;16.10;;;21.60;99.90;;;;;;5074518;28;20390;-81
2023/07/02 10:30:05;;;;;;;22.40;16.40;;;21.50;99.90;;;;;;5057517;28;20391;-81
2023/07/02 10:32:31;;;;;;;22.48;15.77;;;21.60;99.90;;;;;;5069575;28;20852;-80
2023/07/02 10:34:58;;;;;;;24.02;17.88;;;21.60;99.90;;;;;;5057432;28;20494;-80
2023/07/02 10:37:24;;;;;;;23.38;15.82;;;21.70;99.90;;;;;;5073818;28;20400;-78
2023/07/02 10:39:51;;;;;;;22.00;16.50;;;21.60;99.90;;;;;;5056294;28;20399;-80
2023/07/02 10:42:17;;;;;;;20.85;16.20;;;21.70;99.90;;;;;;5076254;28;20424;-80
2023/07/02 10:44:52;;;;;;;18.37;15.17;;;21.70;99.90;;;;;;5079547;28;20395;-79
2023/07/02 10:47:19;;;;;;;18.98;15.77;;;21.90;99.90;;;;;;5054905;28;20393;-85
2023/07/02 10:49:45;;;;;;;21.92;15.40;;;22.00;99.90;;;;;;5055016;28;20751;-83
2023/07/02 10:52:10;;;;;;;20.60;15.38;;;21.80;99.90;;;;;;5053988;28;20393;-81
2023/07/02 10:54:44;;;;;;;20.42;15.55;;;21.60;99.90;;;;;;5065144;28;20436;-83
2023/07/02 10:57:12;;;;;;;17.27;14.70;;;21.40;99.90;;;;;;5062613;28;20394;-83
2023/07/02 10:59:38;;;;;;;17.65;14.45;;;21.50;99.90;;;;;;5080748;28;20383;-83
2023/07/02 11:02:04;;;;;;;18.90;14.60;;;21.50;99.90;;;;;;5062288;28;21078;-83
2023/07/02 11:04:33;;;;;;;18.60;14.30;;;21.50;99.90;;;;;;5077767;28;20885;-82
2023/07/02 11:07:00;;;;;;;19.15;14.73;;;21.30;99.90;;;;;;5057990;28;20479;-83
2023/07/02 11:09:26;;;;;;;21.25;15.00;;;21.10;99.90;;;;;;5078292;28;20392;-82
2023/07/02 11:11:56;;;;;;;19.73;14.98;;;21.20;99.90;;;;;;5079739;28;20397;-81
2023/07/02 11:14:33;;;;;;;21.00;15.20;;;21.10;99.90;;;;;;5063234;28;20437;-83
2023/07/02 11:17:02;;;;;;;20.80;15.07;;;21.10;99.90;;;;;;5060408;28;20499;-83
2023/07/02 11:19:27;;;;;;;19.23;15.02;;;21.20;99.90;;;;;;5070217;28;20424;-82
2023/07/02 11:21:59;;;;;;;17.50;14.77;;;21.10;99.90;;;;;;5062224;28;20381;-83
2023/07/02 11:24:29;;;;;;;19.70;14.45;;;21.30;99.90;;;;;;5061659;28;20472;-82
2023/07/02 11:26:55;;;;;;;19.15;15.05;;;21.20;99.90;;;;;;5061797;28;20390;-83
2023/07/02 11:29:20;;;;;;;20.92;15.10;;;21.20;99.90;;;;;;5073509;28;20406;-83
2023/07/02 11:31:46;;;;;;;19.60;14.35;;;21.10;99.90;;;;;;5086377;28;20462;-83
2023/07/02 11:34:22;;;;;;;18.90;14.83;;;20.60;99.90;;;;;;5086237;28;20427;-83
2023/07/02 11:36:48;;;;;;;17.17;14.35;;;21.40;99.90;;;;;;5085046;28;20901;-82
2023/07/02 11:39:15;;;;;;;18.20;14.73;;;21.30;99.90;;;;;;5050767;28;20401;-82
2023/07/02 11:41:42;;;;;;;18.83;14.88;;;21.30;99.90;;;;;;5064505;28;20381;-82
2023/07/02 11:44:09;;;;;;;17.58;13.98;;;21.20;99.90;;;;;;5063556;28;20470;-83
2023/07/02 11:46:34;;;;;;;17.25;14.02;;;21.30;99.90;;;;;;5062109;28;20748;-82
2023/07/02 11:49:01;;;;;;;17.60;13.80;;;21.30;99.90;;;;;;5066872;28;20397;-84
2023/07/02 11:51:26;;;;;;;20.90;15.10;;;21.30;99.90;;;;;;5065034;28;20411;-83
2023/07/02 11:53:52;;;;;;;17.25;13.55;;;21.30;99.90;;;;;;5062832;28;20802;-84
2023/07/02 11:56:17;;;;;;;18.00;14.03;;;22.00;99.90;;;;;;5062297;28;20416;-84
2023/07/02 11:58:43;;;;;;;16.20;13.65;;;21.90;99.90;;;;;;5078049;28;20774;-83
2023/07/02 12:01:08;;;;;;;15.70;14.00;;;22.20;99.90;;;;;;5059970;28;20395;-83
2023/07/02 12:03:34;;;;;;;18.17;14.55;;;22.50;99.90;;;;;;5076265;28;20386;-83
2023/07/02 12:06:00;;;;;;;16.47;13.73;;;22.20;99.90;;;;;;5058664;28;20396;-83
2023/07/02 12:08:25;;;;;;;15.85;13.60;;;22.20;99.90;;;;;;5065206;28;20392;-82
2023/07/02 12:10:51;;;;;;;18.33;14.03;;;22.40;99.90;;;;;;5076637;28;20896;-83
2023/07/02 12:13:17;;;;;;;19.67;13.70;;;22.90;99.90;;;;;;5039742;28;20389;-83
2023/07/02 12:15:42;;;;;;;18.98;14.73;;;23.00;99.90;;;;;;5038663;28;20408;-83
2023/07/02 12:18:09;;;;;;;17.17;14.40;;;23.70;99.90;;;;;;5060741;28;20410;-83
2023/07/02 12:20:34;;;;;;;19.52;14.82;;;23.00;99.90;;;;;;5059396;28;20395;-82
2023/07/02 12:23:00;;;;;;;19.47;14.10;;;23.60;99.90;;;;;;5081104;28;20372;-82
2023/07/02 12:25:26;;;;;;;19.88;13.88;;;23.70;99.90;;;;;;5077822;28;20419;-83
2023/07/02 12:27:51;;;;;;;17.97;14.13;;;23.60;99.90;;;;;;5076991;28;20445;-83
2023/07/02 12:30:17;;;;;;;16.27;14.35;;;23.20;99.90;;;;;;5058652;28;20806;-84